To NAV CANADA Home Page Login to a new session Search on AWWS site Feedback and Comments Disclaimer Vers la page française équivalente Tips FAQ What's new on the site To the Forecasts and Observations / NOTAM section To "File a Flight Plan" website Publications and other links Update of the User's profile FIC Telephone Numbers My Weather Data Folder Route Weather Data Regional Weather Data Local Weather Data To the Forecasts and Observations / NOTAM section
Request Generated 10/17/2017 at 01:45:17 UTC . Weather information available at that time is displayed.

METAR/TAF

KINGSTON/ON    

METAR CYGK 170100Z 30004KT 15SM SKC 01/M03 A3024 RMK SLP247=
METAR CYGK 170000Z 32004KT 15SM FEW055 04/M02 A3024 RMK SC1 SLP244=
METAR CYGK 162300Z 33006KT 15SM FEW055 05/M02 A3023 RMK SC2 SLP240=

TAF CYGK 161939Z 1620/1703 35007G17KT P6SM BKN060 TEMPO 1620/1624
P6SM -SHRA BKN030
FM170000 32007KT P6SM FEW030
RMK NXT FCST WILL BE ISSUED AT 171145Z=
Your time UTC time
Weather data provided by Environment Canada and NAV CANADA